createdAt,value
2022-11-22T00:01:26.564Z,41.20
2022-11-22T00:03:57.151Z,45.10
2022-11-22T00:06:27.872Z,39.40
2022-11-22T00:08:58.353Z,39.00
2022-11-22T00:11:29.054Z,41.80
2022-11-22T00:13:59.622Z,37.20
2022-11-22T00:16:30.467Z,38.50
2022-11-22T00:19:01.391Z,37.40
2022-11-22T00:21:32.088Z,41.20
2022-11-22T00:24:02.774Z,40.00
2022-11-22T00:26:33.546Z,38.90
2022-11-22T00:29:04.936Z,39.80
2022-11-22T00:31:35.747Z,42.00
2022-11-22T00:34:06.670Z,39.10
2022-11-22T00:36:37.454Z,37.50
2022-11-22T00:39:08.936Z,38.40
2022-11-22T00:41:40.615Z,41.40
2022-11-22T00:44:11.291Z,39.20
2022-11-22T00:46:42.118Z,38.50
2022-11-22T00:49:12.751Z,39.00
2022-11-22T00:51:43.496Z,40.40
2022-11-22T00:54:14.091Z,40.90
2022-11-22T00:56:44.641Z,38.90
2022-11-22T00:59:15.282Z,44.50
2022-11-22T01:01:46.041Z,42.10
2022-11-22T01:04:16.990Z,41.10
2022-11-22T01:06:47.770Z,44.10
2022-11-22T01:09:19.951Z,43.70
2022-11-22T01:11:51.068Z,42.90
2022-11-22T01:14:21.730Z,44.50
2022-11-22T01:16:52.520Z,43.50
2022-11-22T01:19:23.107Z,50.80
2022-11-22T01:21:53.852Z,49.60
2022-11-22T01:24:24.425Z,48.10
2022-11-22T01:26:55.053Z,47.20
2022-11-22T01:29:25.559Z,46.60
2022-11-22T01:31:56.318Z,48.70
2022-11-22T01:34:27.075Z,51.70
2022-11-22T01:36:57.572Z,56.50
2022-11-22T01:39:28.464Z,53.40
2022-11-22T01:41:59.335Z,49.20
2022-11-22T01:44:30.934Z,49.00
2022-11-22T01:47:02.532Z,46.60
2022-11-22T01:49:35.269Z,44.90
2022-11-22T01:52:09.025Z,52.10
2022-11-22T01:54:41.751Z,51.60
2022-11-22T01:57:15.041Z,56.20
2022-11-22T01:59:49.061Z,49.30
2022-11-22T02:02:19.913Z,47.60
2022-11-22T02:04:51.999Z,48.20
2022-11-22T02:07:24.198Z,45.70
2022-11-22T02:09:54.950Z,46.50
2022-11-22T02:12:27.733Z,49.50
2022-11-22T02:14:59.500Z,50.60
2022-11-22T02:17:30.481Z,51.40
2022-11-22T02:20:00.961Z,51.50
2022-11-22T02:22:33.338Z,50.60
2022-11-22T02:25:09.295Z,50.00
2022-11-22T02:27:40.464Z,46.90
2022-11-22T02:30:11.744Z,43.40
2022-11-22T02:32:42.447Z,45.90
2022-11-22T02:35:19.427Z,48.00
2022-11-22T02:37:51.697Z,49.10
2022-11-22T02:40:22.602Z,50.10
2022-11-22T02:42:56.800Z,46.20
2022-11-22T02:45:27.336Z,47.10
2022-11-22T02:48:07.097Z,41.20
2022-11-22T02:50:38.087Z,41.50
2022-11-22T02:53:09.673Z,45.00
2022-11-22T02:58:11.285Z,44.60
2022-11-22T03:00:41.829Z,45.90
2022-11-22T03:03:12.732Z,39.60
2022-11-22T03:05:43.131Z,39.00
2022-11-22T03:08:14.172Z,35.20
2022-11-22T03:10:44.492Z,30.70
2022-11-22T03:13:15.841Z,30.20
2022-11-22T03:15:48.425Z,33.10
2022-11-22T03:18:19.246Z,32.10
2022-11-22T03:20:49.785Z,32.10
2022-11-22T03:23:20.824Z,33.30
2022-11-22T03:25:51.156Z,30.40
2022-11-22T03:28:21.993Z,31.20
2022-11-22T03:30:52.423Z,33.70
2022-11-22T03:33:23.166Z,30.80
2022-11-22T03:35:56.115Z,29.60
2022-11-22T03:38:27.337Z,30.20
2022-11-22T03:40:57.809Z,30.00
2022-11-22T03:43:28.539Z,29.10
2022-11-22T03:45:58.814Z,28.60
2022-11-22T03:48:29.630Z,31.30
2022-11-22T03:51:05.873Z,32.00
2022-11-22T03:53:36.826Z,33.30
2022-11-22T03:56:07.387Z,31.20
2022-11-22T03:58:38.057Z,29.60
2022-11-22T04:01:12.084Z,32.80
2022-11-22T04:03:47.239Z,28.10
2022-11-22T04:06:17.844Z,29.00
2022-11-22T04:08:49.013Z,27.80
2022-11-22T04:11:19.305Z,29.80
2022-11-22T04:14:07.551Z,29.00
2022-11-22T04:16:37.938Z,27.50
2022-11-22T04:19:09.109Z,30.00
2022-11-22T04:21:39.739Z,31.30
2022-11-22T04:24:29.622Z,33.20
2022-11-22T04:27:00.044Z,32.40
2022-11-22T04:29:31.306Z,31.90
2022-11-22T04:32:19.395Z,33.30
2022-11-22T04:34:50.614Z,34.00
2022-11-22T04:37:21.145Z,31.20
2022-11-22T04:39:51.837Z,33.00
2022-11-22T04:42:39.676Z,32.60
2022-11-22T04:45:11.343Z,32.20
2022-11-22T04:47:59.056Z,33.10
2022-11-22T04:50:48.221Z,32.10
2022-11-22T04:53:19.103Z,33.80
2022-11-22T04:56:07.338Z,35.20
2022-11-22T04:58:37.724Z,36.40
2022-11-22T05:01:09.140Z,34.10
2022-11-22T05:03:39.804Z,34.90
2022-11-22T05:06:14.670Z,31.70
2022-11-22T05:08:45.015Z,33.30
2022-11-22T05:11:15.901Z,33.30
2022-11-22T05:13:46.178Z,34.60
2022-11-22T05:16:17.673Z,38.30
2022-11-22T05:18:59.381Z,35.30
2022-11-22T05:21:30.969Z,34.10
2022-11-22T05:24:01.348Z,32.70
2022-11-22T05:26:33.152Z,33.50
2022-11-22T05:29:05.893Z,31.50
2022-11-22T05:31:37.826Z,32.60
2022-11-22T05:34:08.803Z,33.70
2022-11-22T05:36:39.447Z,32.70
2022-11-22T05:39:09.832Z,31.80
2022-11-22T05:41:56.183Z,34.20
2022-11-22T05:44:26.670Z,36.50
2022-11-22T05:46:57.854Z,33.60
2022-11-22T05:49:28.576Z,34.90
2022-11-22T05:51:59.678Z,34.40
2022-11-22T05:54:30.206Z,31.20
2022-11-22T05:57:01.604Z,32.10
2022-11-22T05:59:32.109Z,35.50
2022-11-22T06:02:04.655Z,30.70
2022-11-22T06:04:35.459Z,32.70
2022-11-22T06:07:10.247Z,33.50
2022-11-22T06:09:40.850Z,34.10
2022-11-22T06:12:11.795Z,33.80
2022-11-22T06:14:43.618Z,34.80
2022-11-22T06:17:14.896Z,35.40
2022-11-22T06:19:45.443Z,32.20
2022-11-22T06:22:16.490Z,33.80
2022-11-22T06:24:47.098Z,32.50
2022-11-22T06:27:17.999Z,33.60
2022-11-22T06:29:48.305Z,33.10
2022-11-22T06:32:19.336Z,33.40
2022-11-22T06:34:49.727Z,32.40
2022-11-22T06:37:20.523Z,30.80
2022-11-22T06:39:50.884Z,34.50
2022-11-22T06:42:21.931Z,32.70
2022-11-22T06:44:52.349Z,30.70
2022-11-22T06:47:23.081Z,33.90
2022-11-22T06:49:53.718Z,37.80
2022-11-22T06:52:24.669Z,36.20
2022-11-22T06:54:55.081Z,40.80
2022-11-22T06:57:26.012Z,34.80
2022-11-22T06:59:56.361Z,36.40
2022-11-22T07:02:27.598Z,34.90
2022-11-22T07:05:23.783Z,38.90
2022-11-22T07:07:49.088Z,34.20
2022-11-22T07:10:19.547Z,32.70
2022-11-22T07:12:50.080Z,32.30
2022-11-22T07:15:20.399Z,33.20
2022-11-22T07:17:51.340Z,35.70
2022-11-22T07:20:21.866Z,32.90
2022-11-22T07:22:52.394Z,36.30
2022-11-22T07:25:22.974Z,35.10
2022-11-22T07:27:54.475Z,33.90
2022-11-22T07:30:25.101Z,33.70
2022-11-22T07:32:56.146Z,33.70
2022-11-22T07:35:26.734Z,34.70
2022-11-22T07:37:57.204Z,33.90
2022-11-22T07:40:27.980Z,35.50
2022-11-22T07:42:58.916Z,36.70
2022-11-22T07:45:29.504Z,40.20
2022-11-22T07:48:01.915Z,36.10
2022-11-22T07:50:32.505Z,37.00
2022-11-22T07:53:03.143Z,38.90
2022-11-22T07:55:34.071Z,42.10
2022-11-22T07:58:05.733Z,41.80
2022-11-22T08:00:36.323Z,44.00
2022-11-22T08:03:08.320Z,39.90
2022-11-22T08:05:38.908Z,41.20
2022-11-22T08:08:09.628Z,38.90
2022-11-22T08:10:40.417Z,40.30
2022-11-22T08:13:10.947Z,41.00
2022-11-22T08:15:41.407Z,40.40
2022-11-22T08:18:12.112Z,41.00
2022-11-22T08:20:42.736Z,37.00
2022-11-22T08:23:13.376Z,37.10
2022-11-22T08:25:44.107Z,41.50
2022-11-22T08:28:14.625Z,40.50
2022-11-22T08:30:45.246Z,37.20
2022-11-22T08:33:15.831Z,36.40
2022-11-22T08:35:50.236Z,36.70
2022-11-22T08:38:20.841Z,35.30
2022-11-22T08:40:52.183Z,33.80
2022-11-22T08:43:22.825Z,34.60
2022-11-22T08:45:57.140Z,36.30
2022-11-22T08:48:27.988Z,37.50
2022-11-22T08:50:59.688Z,39.20
2022-11-22T08:53:31.798Z,35.40
2022-11-22T08:56:02.538Z,36.20
2022-11-22T08:58:33.754Z,36.60
2022-11-22T09:01:07.085Z,34.10
2022-11-22T09:09:22.170Z,34.00
2022-11-22T09:11:49.948Z,37.40
2022-11-22T09:14:20.465Z,34.50
2022-11-22T09:16:50.962Z,36.10
2022-11-22T09:19:21.492Z,33.90
2022-11-22T09:21:51.941Z,34.20
2022-11-22T09:24:23.083Z,33.60
2022-11-22T09:26:53.349Z,29.70
2022-11-22T09:29:25.535Z,31.80
2022-11-22T09:31:57.355Z,29.10
2022-11-22T09:34:28.006Z,30.40
2022-11-22T09:36:58.335Z,34.00
2022-11-22T09:39:29.186Z,31.00
2022-11-22T09:42:10.579Z,28.60
2022-11-22T09:44:46.725Z,28.70
2022-11-22T09:47:22.651Z,26.40
2022-11-22T09:49:58.281Z,28.00
2022-11-22T09:52:33.402Z,28.80
2022-11-22T09:55:06.190Z,26.70
2022-11-22T09:57:40.397Z,26.80
2022-11-22T10:00:18.997Z,25.90
2022-11-22T10:03:00.931Z,26.10
2022-11-22T10:19:55.292Z,26.30
2022-11-22T10:22:29.010Z,25.10
2022-11-22T10:25:00.242Z,25.00
2022-11-22T10:27:32.612Z,21.90
2022-11-22T10:30:05.707Z,21.80
2022-11-22T10:32:39.143Z,22.80
2022-11-22T10:37:42.607Z,18.80
2022-11-22T10:40:17.875Z,20.00
2022-11-22T10:43:09.102Z,20.00
2022-11-22T10:45:42.523Z,21.10
2022-11-22T10:50:50.630Z,20.00
2022-11-22T10:53:32.220Z,19.20
2022-11-22T10:56:06.272Z,19.70
2022-11-22T10:58:41.494Z,20.00
2022-11-22T11:01:19.321Z,21.20
2022-11-22T11:03:53.120Z,18.30
2022-11-22T11:06:43.701Z,18.80
2022-11-22T11:12:16.859Z,19.00
2022-11-22T11:14:48.546Z,19.90
2022-11-22T11:17:20.193Z,18.90
2022-11-22T11:19:51.318Z,19.00
2022-11-22T11:22:50.380Z,17.00
2022-11-22T11:25:31.356Z,18.30
2022-11-22T11:28:04.297Z,19.60
2022-11-22T11:30:42.969Z,18.50
2022-11-22T11:33:30.481Z,16.60
2022-11-22T11:36:07.093Z,17.80
2022-11-22T11:38:38.913Z,18.00
2022-11-22T11:41:19.435Z,19.50
2022-11-22T11:43:50.516Z,16.50
2022-11-22T11:46:21.669Z,15.30
2022-11-22T11:48:53.215Z,15.00
2022-11-22T11:51:25.885Z,16.00
2022-11-22T11:53:58.928Z,16.40
2022-11-22T11:56:40.200Z,15.40
2022-11-22T11:59:14.030Z,14.10
2022-11-22T12:01:52.217Z,14.10
2022-11-22T12:04:24.747Z,15.60
2022-11-22T12:07:01.656Z,16.80
2022-11-22T12:09:35.643Z,15.20
2022-11-22T12:12:17.952Z,15.00
2022-11-22T12:17:47.876Z,15.90
2022-11-22T12:20:22.152Z,16.00
2022-11-22T12:22:58.536Z,16.70
2022-11-22T12:25:33.142Z,14.50
2022-11-22T12:28:11.204Z,14.70
2022-11-22T12:30:43.753Z,15.40
2022-11-22T12:33:18.901Z,16.10
2022-11-22T12:35:50.440Z,14.40
2022-11-22T12:38:23.995Z,15.30
2022-11-22T12:40:56.622Z,14.70
2022-11-22T12:43:28.396Z,12.40
2022-11-22T12:46:00.751Z,14.30
2022-11-22T12:48:23.573Z,15.80
2022-11-22T12:48:34.115Z,16.30
2022-11-22T12:51:09.069Z,16.70
2022-11-22T12:53:41.189Z,14.60
2022-11-22T12:56:17.169Z,12.20
2022-11-22T12:58:50.416Z,12.50
2022-11-22T13:03:54.731Z,13.40
2022-11-22T13:06:26.587Z,13.40
2022-11-22T13:09:03.784Z,11.70
2022-11-22T13:11:37.140Z,12.70
2022-11-22T13:14:08.831Z,13.40
2022-11-22T13:16:40.267Z,13.40
2022-11-22T13:19:14.592Z,13.20
2022-11-22T13:21:55.004Z,13.40
2022-11-22T13:24:33.234Z,12.00
2022-11-22T13:27:10.718Z,12.60
2022-11-22T13:29:41.769Z,11.70
2022-11-22T13:32:20.605Z,14.30
2022-11-22T13:35:06.090Z,12.70
2022-11-22T13:37:39.412Z,12.90
2022-11-22T13:42:39.820Z,13.70
2022-11-22T13:45:21.688Z,13.00
2022-11-22T13:47:52.658Z,14.80
2022-11-22T13:50:40.494Z,16.10
2022-11-22T13:53:22.943Z,17.30
2022-11-22T13:55:53.568Z,17.10
2022-11-22T13:58:54.696Z,21.10
2022-11-22T14:01:39.098Z,22.20
2022-11-22T14:04:21.285Z,22.90
2022-11-22T14:06:52.472Z,20.30
2022-11-22T14:09:37.180Z,19.50
2022-11-22T14:12:21.238Z,20.10
2022-11-22T14:15:02.562Z,21.80
2022-11-22T14:17:41.858Z,22.20
2022-11-22T14:20:24.317Z,23.80
2022-11-22T14:22:57.191Z,20.70
2022-11-22T14:25:39.485Z,20.40
2022-11-22T14:28:14.732Z,21.20
2022-11-22T14:30:47.930Z,22.40
2022-11-22T14:33:19.075Z,24.10
2022-11-22T14:36:07.208Z,23.80
2022-11-22T14:38:39.113Z,23.60
2022-11-22T14:41:26.925Z,23.70
2022-11-22T14:44:01.129Z,25.30
2022-11-22T14:46:52.828Z,26.50
2022-11-22T14:49:30.846Z,23.60
2022-11-22T14:52:01.575Z,24.30
2022-11-22T14:54:40.497Z,25.00
2022-11-22T14:57:14.751Z,24.60
2022-11-22T15:00:03.014Z,29.40
2022-11-22T15:02:50.916Z,25.50
2022-11-22T15:09:20.684Z,24.10
2022-11-22T15:09:22.732Z,24.90
2022-11-22T15:11:27.300Z,22.40
2022-11-22T15:14:30.187Z,26.20
2022-11-22T15:57:34.634Z,23.80
2022-11-22T16:00:10.743Z,26.70
2022-11-22T16:02:49.290Z,26.70
2022-11-22T16:06:06.187Z,25.20
2022-11-22T16:08:18.858Z,22.80
2022-11-22T16:10:51.236Z,22.90
2022-11-22T16:13:28.704Z,27.30
2022-11-22T16:16:07.171Z,25.40
2022-11-22T16:18:38.297Z,25.80
2022-11-22T16:21:20.386Z,25.70
2022-11-22T16:24:08.821Z,23.10
2022-11-22T16:26:40.227Z,24.30
2022-11-22T16:29:20.625Z,22.90
2022-11-22T16:31:50.905Z,22.80
2022-11-22T16:34:21.694Z,23.70
2022-11-22T16:36:52.267Z,21.80
2022-11-22T16:39:24.183Z,20.70
2022-11-22T16:41:54.547Z,19.30
2022-11-22T16:44:26.569Z,21.90
2022-11-22T16:46:58.910Z,21.00
2022-11-22T16:49:33.523Z,22.80
2022-11-22T16:52:04.466Z,21.80
2022-11-22T16:54:35.553Z,20.50
2022-11-22T16:57:07.313Z,19.40
2022-11-22T16:59:38.389Z,19.70
2022-11-22T17:02:10.736Z,18.10
2022-11-22T17:04:41.925Z,18.10
2022-11-22T17:07:12.663Z,19.30
2022-11-22T17:09:43.631Z,18.10
2022-11-22T17:12:14.509Z,19.10
2022-11-22T17:14:48.839Z,19.20
2022-11-22T17:17:19.312Z,17.00
2022-11-22T17:19:53.268Z,18.40
2022-11-22T17:22:24.369Z,18.20
2022-11-22T17:24:55.420Z,19.80
2022-11-22T17:27:25.728Z,18.40
2022-11-22T17:29:56.720Z,17.60
2022-11-22T17:32:27.397Z,18.80
2022-11-22T17:34:58.243Z,19.20
2022-11-22T17:37:29.796Z,20.80
2022-11-22T17:40:00.826Z,20.10
2022-11-22T17:42:31.129Z,19.70
2022-11-22T17:45:01.835Z,19.00
2022-11-22T17:47:32.825Z,21.20
2022-11-22T17:50:03.567Z,19.70
2022-11-22T17:52:33.986Z,18.50
2022-11-22T17:55:06.878Z,20.40
2022-11-22T17:57:40.744Z,18.60
2022-11-22T18:00:12.188Z,18.50
2022-11-22T18:02:42.637Z,16.80
2022-11-22T18:05:13.894Z,18.40
2022-11-22T18:07:44.378Z,17.20
2022-11-22T18:10:15.262Z,17.90
2022-11-22T18:12:58.599Z,17.30
2022-11-22T18:15:36.577Z,16.10
2022-11-22T18:18:07.246Z,16.10
2022-11-22T18:20:38.102Z,18.40
2022-11-22T18:23:08.788Z,16.90
2022-11-22T18:25:39.422Z,17.30
2022-11-22T18:28:10.165Z,17.20
2022-11-22T18:30:42.358Z,16.60
2022-11-22T18:33:13.163Z,18.00
2022-11-22T18:35:55.959Z,19.00
2022-11-22T18:38:26.923Z,18.00
2022-11-22T18:40:59.556Z,17.90
2022-11-22T18:43:29.930Z,18.90
2022-11-22T18:46:04.072Z,17.90
2022-11-22T18:48:36.723Z,19.20
2022-11-22T18:51:09.196Z,16.50
2022-11-22T18:53:40.792Z,19.50
2022-11-22T18:56:12.329Z,18.50
2022-11-22T18:58:42.618Z,19.40
2022-11-22T19:01:14.136Z,19.10
2022-11-22T19:03:45.627Z,19.20
2022-11-22T19:06:16.960Z,20.20
2022-11-22T19:08:48.446Z,18.30
2022-11-22T19:11:19.417Z,18.90
2022-11-22T19:13:49.788Z,21.10
2022-11-22T19:16:22.804Z,20.60
2022-11-22T19:18:53.093Z,20.60
2022-11-22T19:21:24.737Z,19.90
2022-11-22T19:23:55.663Z,22.00
2022-11-22T19:26:28.007Z,21.50
2022-11-22T19:29:02.555Z,20.50
2022-11-22T19:31:37.115Z,19.30
2022-11-22T19:34:07.653Z,21.70
2022-11-22T19:36:40.824Z,21.20
2022-11-22T19:39:13.588Z,22.10
2022-11-22T19:41:45.454Z,22.60
2022-11-22T19:44:15.877Z,21.50
2022-11-22T19:46:46.923Z,20.50
2022-11-22T19:49:17.905Z,22.30
2022-11-22T19:51:48.902Z,25.10
2022-11-22T19:54:19.258Z,20.50
2022-11-22T19:56:49.869Z,21.40
2022-11-22T19:59:20.579Z,21.50
2022-11-22T20:01:51.418Z,21.70
2022-11-22T20:04:21.856Z,22.70
2022-11-22T20:06:52.681Z,21.70
2022-11-22T20:09:23.787Z,20.90
2022-11-22T20:11:54.704Z,24.70
2022-11-22T20:14:25.189Z,24.80
2022-11-22T20:16:55.926Z,22.10
2022-11-22T20:19:31.137Z,21.20
2022-11-22T20:22:04.620Z,23.10
2022-11-22T20:24:35.099Z,21.00
2022-11-22T20:27:06.003Z,20.70
2022-11-22T20:29:36.647Z,22.30
2022-11-22T20:32:07.462Z,24.30
2022-11-22T20:34:37.813Z,23.20
2022-11-22T20:37:09.134Z,22.40
2022-11-22T20:39:39.444Z,21.80
2022-11-22T20:42:33.728Z,24.10
2022-11-22T20:45:00.607Z,21.20
2022-11-22T20:47:31.579Z,22.30
2022-11-22T20:50:02.071Z,22.30
2022-11-22T20:52:32.704Z,23.00
2022-11-22T20:55:05.266Z,21.20
2022-11-22T20:57:36.222Z,23.00
2022-11-22T21:00:08.012Z,23.00
2022-11-22T21:02:38.793Z,20.70
2022-11-22T21:05:12.433Z,22.30
2022-11-22T21:07:42.986Z,21.30
2022-11-22T21:10:13.471Z,23.10
2022-11-22T21:12:44.124Z,24.70
2022-11-22T21:15:15.446Z,23.40
2022-11-22T21:18:09.596Z,22.60
2022-11-22T21:20:37.281Z,23.30
2022-11-22T21:23:08.341Z,22.10
2022-11-22T21:25:38.759Z,23.70
2022-11-22T21:28:09.419Z,22.20
2022-11-22T21:30:39.815Z,21.70
2022-11-22T21:33:11.265Z,23.20
2022-11-22T21:35:45.715Z,22.50
2022-11-22T21:38:16.731Z,21.00
2022-11-22T21:40:58.384Z,23.00
2022-11-22T21:43:36.639Z,24.80
2022-11-22T21:46:07.460Z,20.50
2022-11-22T21:48:37.933Z,25.00
2022-11-22T21:51:08.729Z,23.20
2022-11-22T21:53:39.616Z,24.70
2022-11-22T21:56:10.425Z,22.30
2022-11-22T21:58:40.944Z,23.80
2022-11-22T22:01:14.255Z,25.60
2022-11-22T22:03:45.207Z,22.50
2022-11-22T22:06:15.580Z,23.60
2022-11-22T22:08:46.729Z,24.60
2022-11-22T22:11:17.055Z,25.70
2022-11-22T22:13:47.486Z,24.70
2022-11-22T22:16:23.058Z,22.60
2022-11-22T22:18:54.309Z,23.90
2022-11-22T22:21:24.687Z,22.90
2022-11-22T22:23:55.436Z,23.10
2022-11-22T22:26:25.992Z,25.00
2022-11-22T22:28:57.350Z,26.50
2022-11-22T22:31:27.767Z,26.70
2022-11-22T22:33:59.129Z,24.40
2022-11-22T22:36:29.607Z,22.40
2022-11-22T22:39:00.434Z,25.30
2022-11-22T22:41:31.436Z,23.90
2022-11-22T22:44:02.219Z,25.30
2022-11-22T22:46:32.736Z,24.90
2022-11-22T22:49:03.337Z,25.80
2022-11-22T22:51:33.897Z,25.40
2022-11-22T22:54:04.880Z,23.60
2022-11-22T22:56:35.168Z,23.00
2022-11-22T22:59:08.142Z,24.60
2022-11-22T23:01:38.510Z,25.40
2022-11-22T23:04:09.203Z,23.20
2022-11-22T23:06:40.275Z,22.90
2022-11-22T23:09:11.943Z,23.50
2022-11-22T23:12:00.041Z,23.30
2022-11-22T23:14:30.912Z,25.10
2022-11-22T23:17:01.198Z,25.80
2022-11-22T23:19:32.150Z,23.00
2022-11-22T23:22:02.868Z,22.90
2022-11-22T23:24:34.393Z,23.10
2022-11-22T23:27:04.901Z,23.20
2022-11-22T23:29:36.206Z,23.60
2022-11-22T23:32:07.360Z,25.40
2022-11-22T23:34:38.342Z,27.60
2022-11-22T23:37:08.605Z,30.40
2022-11-22T23:39:39.965Z,26.20
2022-11-22T23:42:11.186Z,27.40
2022-11-22T23:44:41.929Z,25.50
2022-11-22T23:47:12.264Z,25.60
2022-11-22T23:49:42.813Z,24.20
2022-11-22T23:52:13.210Z,27.60
2022-11-22T23:54:43.975Z,29.40
2022-11-22T23:57:14.253Z,31.00
2022-11-22T23:59:45.397Z,27.80
